createdAt,value
2022-10-19T00:02:21.845Z,9.03
2022-10-19T00:05:24.770Z,9.00
2022-10-19T00:08:27.781Z,8.89
2022-10-19T00:11:31.762Z,8.96
2022-10-19T00:14:34.376Z,8.99
2022-10-19T00:17:37.286Z,9.00
2022-10-19T00:20:39.868Z,9.06
2022-10-19T00:23:44.012Z,9.04
2022-10-19T00:26:46.653Z,9.11
2022-10-19T00:29:49.521Z,9.07
2022-10-19T00:32:52.138Z,8.98
2022-10-19T00:35:55.002Z,8.96
2022-10-19T00:38:59.141Z,8.77
2022-10-19T00:42:02.074Z,8.78
2022-10-19T00:45:12.879Z,8.63
2022-10-19T00:48:25.752Z,8.71
2022-10-19T00:51:29.553Z,8.67
2022-10-19T00:54:33.790Z,8.65
2022-10-19T00:57:36.926Z,8.66
2022-10-19T01:00:39.867Z,8.69
2022-10-19T01:03:42.801Z,8.74
2022-10-19T01:06:45.888Z,8.71
2022-10-19T01:09:48.614Z,8.83
2022-10-19T01:13:00.293Z,8.90
2022-10-19T01:16:15.336Z,8.94
2022-10-19T01:19:59.571Z,9.17
2022-10-19T01:23:11.319Z,9.31
2022-10-19T01:26:22.986Z,9.28
2022-10-19T01:29:25.527Z,9.30
2022-10-19T01:32:51.718Z,9.39
2022-10-19T01:36:09.462Z,9.62
2022-10-19T01:39:20.873Z,9.69
2022-10-19T01:42:39.976Z,10.54
2022-10-19T01:45:50.709Z,11.49
2022-10-19T01:48:59.071Z,11.94
2022-10-19T01:52:09.355Z,12.14
2022-10-19T01:55:15.658Z,12.32
2022-10-19T01:58:28.061Z,12.63
2022-10-19T02:01:34.071Z,12.88
2022-10-19T02:04:38.453Z,13.21
2022-10-19T02:07:45.156Z,13.55
2022-10-19T02:10:48.990Z,13.77
2022-10-19T02:14:00.158Z,13.95
2022-10-19T02:17:08.109Z,14.06
2022-10-19T02:20:11.275Z,14.12
2022-10-19T02:23:18.871Z,14.20
2022-10-19T02:26:22.036Z,14.14
2022-10-19T02:29:24.900Z,14.12
2022-10-19T02:32:28.194Z,13.93
2022-10-19T02:35:31.261Z,13.84
2022-10-19T02:38:33.956Z,14.01
2022-10-19T02:41:42.710Z,14.03
2022-10-19T02:44:57.307Z,14.02
2022-10-19T02:48:08.823Z,14.07
2022-10-19T02:51:28.578Z,14.12
2022-10-19T02:54:31.907Z,14.10
2022-10-19T02:57:34.714Z,14.08
2022-10-19T03:00:38.068Z,14.23
2022-10-19T03:03:40.682Z,14.29
2022-10-19T03:06:43.798Z,14.21
2022-10-19T03:09:46.504Z,14.17
2022-10-19T03:12:49.292Z,14.17
2022-10-19T03:15:52.418Z,14.08
2022-10-19T03:18:55.219Z,14.12
2022-10-19T03:21:57.898Z,14.12
2022-10-19T03:25:00.742Z,14.17
2022-10-19T03:28:03.355Z,14.13
2022-10-19T03:31:06.319Z,14.14
2022-10-19T03:34:08.884Z,14.12
2022-10-19T03:37:13.431Z,14.08
2022-10-19T03:40:19.361Z,13.98
2022-10-19T03:43:22.157Z,13.98
2022-10-19T03:46:24.991Z,13.87
2022-10-19T03:49:27.927Z,13.91
2022-10-19T03:52:30.625Z,13.87
2022-10-19T03:55:33.541Z,13.80
2022-10-19T03:58:38.168Z,13.67
2022-10-19T04:01:44.157Z,13.76
2022-10-19T04:04:47.138Z,13.72
2022-10-19T04:07:49.664Z,13.83
2022-10-19T04:10:53.043Z,13.87
2022-10-19T04:13:57.112Z,13.89
2022-10-19T04:17:03.397Z,13.77
2022-10-19T04:20:06.442Z,13.80
2022-10-19T04:23:10.987Z,13.70
2022-10-19T04:26:13.798Z,13.63
2022-10-19T04:29:19.157Z,13.52
2022-10-19T04:32:21.672Z,13.54
2022-10-19T04:35:24.539Z,13.49
2022-10-19T04:38:29.814Z,13.44
2022-10-19T04:41:33.378Z,13.46
2022-10-19T04:44:35.880Z,13.51
2022-10-19T04:47:38.782Z,13.65
2022-10-19T04:50:42.880Z,13.71
2022-10-19T04:53:59.536Z,13.69
2022-10-19T04:57:02.534Z,13.84
2022-10-19T05:00:06.343Z,13.98
2022-10-19T05:03:08.891Z,14.09
2022-10-19T05:06:12.659Z,14.14
2022-10-19T05:09:15.217Z,13.96
2022-10-19T05:12:18.152Z,14.01
2022-10-19T05:15:20.649Z,13.96
2022-10-19T05:18:23.613Z,13.89
2022-10-19T05:21:27.748Z,13.95
2022-10-19T05:24:32.563Z,13.93
2022-10-19T05:27:35.429Z,13.81
2022-10-19T05:30:43.349Z,13.76
2022-10-19T05:33:48.032Z,13.63
2022-10-19T05:36:50.904Z,13.68
2022-10-19T05:39:54.797Z,13.66
2022-10-19T05:42:57.594Z,13.70
2022-10-19T05:46:08.376Z,13.76
2022-10-19T05:49:13.254Z,13.70
2022-10-19T05:52:17.783Z,13.85
2022-10-19T05:55:20.636Z,14.24
2022-10-19T05:58:23.609Z,14.92
2022-10-19T06:01:27.533Z,15.42
2022-10-19T06:04:30.552Z,16.00
2022-10-19T06:07:33.331Z,16.47
2022-10-19T06:10:38.206Z,16.76
2022-10-19T06:13:41.770Z,17.09
2022-10-19T06:16:46.075Z,17.22
2022-10-19T06:19:48.893Z,17.27
2022-10-19T06:22:51.701Z,17.43
2022-10-19T06:25:54.311Z,17.72
2022-10-19T06:29:00.451Z,17.73
2022-10-19T06:32:03.317Z,18.16
2022-10-19T06:35:06.519Z,18.27
2022-10-19T06:38:10.034Z,18.21
2022-10-19T06:41:13.456Z,18.23
2022-10-19T06:44:16.003Z,18.63
2022-10-19T06:47:18.773Z,18.23
2022-10-19T06:50:21.451Z,18.70
2022-10-19T06:53:24.771Z,19.18
2022-10-19T06:56:27.860Z,19.08
2022-10-19T06:59:30.733Z,19.11
2022-10-19T07:02:33.473Z,19.23
2022-10-19T07:05:36.307Z,19.36
2022-10-19T07:08:40.249Z,19.79
2022-10-19T07:11:46.105Z,19.21
2022-10-19T07:14:49.051Z,19.42
2022-10-19T07:17:53.022Z,19.40
2022-10-19T07:20:57.869Z,19.56
2022-10-19T07:24:01.065Z,20.27
2022-10-19T07:27:03.942Z,20.13
2022-10-19T07:30:07.574Z,20.49
2022-10-19T07:33:10.163Z,20.72
2022-10-19T07:36:14.259Z,20.16
2022-10-19T07:39:17.248Z,20.10
2022-10-19T07:45:28.122Z,19.49
2022-10-19T07:48:31.031Z,18.94
2022-10-19T07:51:33.726Z,18.96
2022-10-19T07:54:36.486Z,18.84
2022-10-19T07:57:40.707Z,19.53
2022-10-19T08:00:44.890Z,19.48
2022-10-19T08:07:11.356Z,19.70
2022-10-19T08:10:15.131Z,19.67
2022-10-19T08:13:17.800Z,19.73
2022-10-19T08:16:28.636Z,19.75
2022-10-19T08:19:31.232Z,19.44
2022-10-19T08:22:34.531Z,19.65
2022-10-19T08:25:37.370Z,19.54
2022-10-19T08:28:40.439Z,19.29
2022-10-19T08:31:44.592Z,19.27
2022-10-19T08:34:47.385Z,19.17
2022-10-19T08:37:50.153Z,19.35
2022-10-19T08:41:24.799Z,19.42
2022-10-19T08:44:37.725Z,19.10
2022-10-19T08:47:58.188Z,19.11
2022-10-19T08:51:01.491Z,19.23
2022-10-19T08:54:12.230Z,19.31
2022-10-19T08:57:21.130Z,19.38
2022-10-19T09:00:50.303Z,19.12
2022-10-19T09:04:02.210Z,19.23
2022-10-19T09:07:20.443Z,19.32
2022-10-19T09:10:29.051Z,19.13
2022-10-19T09:13:41.633Z,19.47
2022-10-19T09:17:02.753Z,19.19
2022-10-19T09:20:19.149Z,19.06
2022-10-19T09:23:46.677Z,19.11
2022-10-19T09:26:54.479Z,19.10
2022-10-19T09:30:01.417Z,19.25
2022-10-19T09:33:06.086Z,19.40
2022-10-19T09:36:18.196Z,19.63
2022-10-19T09:39:29.565Z,19.32
2022-10-19T09:42:34.690Z,19.27
2022-10-19T09:45:46.169Z,19.31
2022-10-19T09:48:53.442Z,19.20
2022-10-19T09:51:56.320Z,19.24
2022-10-19T09:55:05.884Z,19.41
2022-10-19T09:58:15.122Z,19.44
2022-10-19T10:01:43.095Z,19.34
2022-10-19T10:04:54.743Z,19.05
2022-10-19T10:07:57.410Z,19.62
2022-10-19T10:11:14.604Z,19.60
2022-10-19T10:14:36.700Z,19.49
2022-10-19T10:17:39.535Z,19.52
2022-10-19T10:21:13.474Z,19.78
2022-10-19T10:24:19.178Z,19.50
2022-10-19T10:27:37.106Z,19.28
2022-10-19T10:30:40.178Z,19.26
2022-10-19T10:33:46.191Z,19.11
2022-10-19T10:36:53.724Z,18.73
2022-10-19T10:40:01.863Z,18.66
2022-10-19T10:43:19.059Z,18.62
2022-10-19T10:46:27.317Z,18.45
2022-10-19T10:49:35.395Z,18.47
2022-10-19T10:52:38.425Z,18.24
2022-10-19T10:55:55.353Z,18.08
2022-10-19T10:59:12.326Z,18.35
2022-10-19T11:02:20.811Z,18.71
2022-10-19T11:06:02.877Z,18.61
2022-10-19T11:09:28.672Z,18.69
2022-10-19T11:12:39.862Z,18.95
2022-10-19T11:16:11.223Z,18.92
2022-10-19T11:19:41.296Z,18.67
2022-10-19T11:22:49.720Z,18.67
2022-10-19T11:26:04.273Z,18.50
2022-10-19T11:29:25.638Z,18.52
2022-10-19T11:32:58.520Z,18.61
2022-10-19T11:36:13.105Z,18.71
2022-10-19T11:39:25.733Z,18.94
2022-10-19T11:42:40.246Z,19.20
2022-10-19T11:46:03.946Z,19.17
2022-10-19T11:49:18.876Z,18.83
2022-10-19T11:52:41.709Z,18.65
2022-10-19T11:56:02.343Z,18.59
2022-10-19T11:59:28.591Z,18.65
2022-10-19T12:03:05.333Z,18.75
2022-10-19T12:06:29.702Z,18.84
2022-10-19T12:09:48.128Z,18.37
2022-10-19T12:12:58.803Z,18.41
2022-10-19T12:16:03.621Z,18.45
2022-10-19T12:19:15.966Z,18.68
2022-10-19T12:22:29.940Z,18.92
2022-10-19T12:25:35.217Z,19.11
2022-10-19T12:28:41.870Z,19.45
2022-10-19T12:31:45.487Z,19.95
2022-10-19T12:35:04.661Z,19.87
2022-10-19T12:38:30.361Z,19.31
2022-10-19T12:41:52.148Z,19.33
2022-10-19T12:45:22.487Z,18.96
2022-10-19T12:48:25.400Z,18.52
2022-10-19T12:51:46.233Z,18.43
2022-10-19T12:54:48.799Z,18.14
2022-10-19T12:58:19.635Z,18.23
2022-10-19T13:01:42.158Z,18.08
2022-10-19T13:04:53.201Z,17.94
2022-10-19T13:07:56.188Z,17.66
2022-10-19T13:11:06.291Z,17.80
2022-10-19T13:14:47.919Z,17.64
2022-10-19T13:17:51.933Z,17.89
2022-10-19T13:20:54.940Z,18.08
2022-10-19T13:24:23.800Z,18.16
2022-10-19T13:27:27.318Z,18.35
2022-10-19T13:30:37.005Z,18.48
2022-10-19T13:33:46.556Z,18.54
2022-10-19T13:37:03.106Z,18.24
2022-10-19T13:40:23.630Z,17.92
2022-10-19T13:43:33.278Z,17.80
2022-10-19T13:47:12.401Z,17.64
2022-10-19T13:50:43.740Z,17.46
2022-10-19T13:54:16.532Z,17.43
2022-10-19T13:57:38.145Z,17.42
2022-10-19T14:00:59.637Z,17.45
2022-10-19T14:04:36.308Z,17.40
2022-10-19T14:07:49.975Z,17.39
2022-10-19T14:11:03.887Z,17.35
2022-10-19T14:14:09.130Z,17.34
2022-10-19T14:17:42.407Z,17.31
2022-10-19T14:20:57.901Z,17.28
2022-10-19T14:24:00.878Z,17.13
2022-10-19T14:27:06.967Z,17.04
2022-10-19T14:30:32.673Z,16.94
2022-10-19T14:33:46.327Z,16.87
2022-10-19T14:36:49.939Z,16.79
2022-10-19T14:40:26.449Z,16.73
2022-10-19T14:43:33.697Z,16.63
2022-10-19T14:46:36.330Z,16.55
2022-10-19T14:49:39.175Z,16.50
2022-10-19T14:52:41.917Z,16.41
2022-10-19T14:55:45.600Z,16.24
2022-10-19T14:58:56.737Z,16.11
2022-10-19T15:02:03.210Z,16.11
2022-10-19T15:05:14.539Z,16.16
2022-10-19T15:08:31.840Z,16.13
2022-10-19T15:11:40.431Z,16.02
2022-10-19T15:14:44.631Z,15.95
2022-10-19T15:17:56.653Z,15.88
2022-10-19T15:21:15.757Z,15.76
2022-10-19T15:24:27.386Z,15.71
2022-10-19T15:27:33.619Z,15.64
2022-10-19T15:30:36.749Z,15.57
2022-10-19T15:33:44.383Z,15.43
2022-10-19T15:36:59.758Z,15.24
2022-10-19T15:40:10.987Z,15.21
2022-10-19T15:43:34.756Z,15.06
2022-10-19T15:47:23.629Z,14.87
2022-10-19T15:50:38.678Z,14.69
2022-10-19T15:53:41.453Z,14.40
2022-10-19T15:56:46.607Z,14.27
2022-10-19T15:59:49.578Z,13.99
2022-10-19T16:02:52.171Z,13.67
2022-10-19T16:05:55.172Z,13.28
2022-10-19T16:08:58.831Z,13.03
2022-10-19T16:12:01.833Z,12.87
2022-10-19T16:15:04.847Z,12.65
2022-10-19T16:18:11.287Z,12.47
2022-10-19T16:21:15.523Z,12.27
2022-10-19T16:24:18.601Z,12.06
2022-10-19T16:27:21.337Z,11.85
2022-10-19T16:30:24.505Z,11.71
2022-10-19T16:33:28.564Z,11.54
2022-10-19T16:36:34.424Z,11.42
2022-10-19T16:39:37.237Z,11.26
2022-10-19T16:42:40.470Z,11.13
2022-10-19T16:45:44.270Z,10.89
2022-10-19T16:48:47.429Z,10.82
2022-10-19T16:51:54.700Z,10.69
2022-10-19T16:55:00.394Z,10.57
2022-10-19T16:58:03.247Z,10.48
2022-10-19T17:01:18.353Z,10.32
2022-10-19T17:04:21.234Z,10.32
2022-10-19T17:07:24.698Z,10.20
2022-10-19T17:10:31.255Z,10.09
2022-10-19T17:13:34.392Z,9.95
2022-10-19T17:16:38.732Z,9.93
2022-10-19T17:19:41.959Z,9.82
2022-10-19T17:22:44.934Z,9.65
2022-10-19T17:25:48.911Z,9.66
2022-10-19T17:28:55.653Z,9.51
2022-10-19T17:31:58.920Z,9.53
2022-10-19T17:35:01.798Z,9.42
2022-10-19T17:38:04.925Z,9.36
2022-10-19T17:41:11.153Z,9.24
2022-10-19T17:44:16.707Z,9.04
2022-10-19T17:47:19.723Z,9.10
2022-10-19T17:50:23.158Z,9.01
2022-10-19T17:53:26.659Z,9.06
2022-10-19T17:56:31.087Z,9.05
2022-10-19T17:59:46.592Z,8.98
2022-10-19T18:02:55.967Z,8.93
2022-10-19T18:06:34.776Z,8.86
2022-10-19T18:09:37.692Z,8.93
2022-10-19T18:12:40.891Z,8.93
2022-10-19T18:15:44.006Z,8.90
2022-10-19T18:18:50.090Z,8.99
2022-10-19T18:21:53.464Z,8.94
2022-10-19T18:24:56.699Z,8.95
2022-10-19T18:27:59.555Z,9.10
2022-10-19T18:31:11.833Z,9.25
2022-10-19T18:34:16.072Z,9.66
2022-10-19T18:37:19.413Z,10.38
2022-10-19T18:40:22.430Z,10.66
2022-10-19T18:43:25.505Z,10.85
2022-10-19T18:46:28.370Z,10.84
2022-10-19T18:49:32.146Z,11.04
2022-10-19T18:52:37.912Z,10.96
2022-10-19T18:55:42.013Z,10.86
2022-10-19T18:58:45.593Z,10.69
2022-10-19T19:01:48.839Z,10.62
2022-10-19T19:04:52.282Z,10.45
2022-10-19T19:07:56.041Z,10.14
2022-10-19T19:11:13.449Z,10.10
2022-10-19T19:14:21.091Z,9.95
2022-10-19T19:17:25.083Z,9.78
2022-10-19T19:20:32.834Z,9.63
2022-10-19T19:23:36.161Z,9.39
2022-10-19T19:26:42.071Z,9.33
2022-10-19T19:29:44.898Z,9.25
2022-10-19T19:32:48.027Z,9.15
2022-10-19T19:35:52.290Z,9.01
2022-10-19T19:38:57.239Z,8.84
2022-10-19T19:42:00.152Z,8.73
2022-10-19T19:45:08.308Z,8.64
2022-10-19T19:48:12.191Z,8.63
2022-10-19T19:51:21.223Z,8.39
2022-10-19T19:54:24.401Z,8.20
2022-10-19T19:57:28.095Z,8.24
2022-10-19T20:00:31.239Z,8.27
2022-10-19T20:03:34.333Z,8.18
2022-10-19T20:06:39.638Z,8.04
2022-10-19T20:09:43.107Z,7.90
2022-10-19T20:12:47.321Z,7.76
2022-10-19T20:15:50.398Z,7.71
2022-10-19T20:19:08.405Z,7.61
2022-10-19T20:22:13.117Z,7.60
2022-10-19T20:25:19.689Z,7.42
2022-10-19T20:28:27.555Z,7.51
2022-10-19T20:31:31.910Z,7.40
2022-10-19T20:34:36.049Z,7.27
2022-10-19T20:37:38.936Z,7.36
2022-10-19T20:40:42.763Z,7.20
2022-10-19T20:43:49.533Z,7.16
2022-10-19T20:46:54.077Z,6.97
2022-10-19T20:49:57.124Z,7.12
2022-10-19T20:53:00.384Z,7.41
2022-10-19T20:56:07.824Z,7.59
2022-10-19T20:59:14.734Z,7.96
2022-10-19T21:02:17.641Z,8.26
2022-10-19T21:05:20.708Z,8.60
2022-10-19T21:08:23.321Z,8.67
2022-10-19T21:11:31.694Z,8.66
2022-10-19T21:14:34.294Z,8.61
2022-10-19T21:17:37.183Z,8.52
2022-10-19T21:20:40.150Z,8.49
2022-10-19T21:23:45.392Z,8.19
2022-10-19T21:26:48.329Z,8.01
2022-10-19T21:29:51.388Z,7.73
2022-10-19T21:32:54.057Z,7.58
2022-10-19T21:35:59.923Z,7.31
2022-10-19T21:39:02.701Z,7.05
2022-10-19T21:42:06.307Z,6.91
2022-10-19T21:45:29.179Z,6.80
2022-10-19T21:48:33.998Z,6.92
2022-10-19T21:51:53.671Z,6.79
2022-10-19T21:54:56.610Z,6.70
2022-10-19T21:57:59.245Z,6.66
2022-10-19T22:01:07.534Z,6.59
2022-10-19T22:04:17.200Z,6.43
2022-10-19T22:07:19.776Z,6.27
2022-10-19T22:10:23.087Z,6.16
2022-10-19T22:13:25.799Z,6.04
2022-10-19T22:16:29.714Z,6.11
2022-10-19T22:19:32.302Z,6.01
2022-10-19T22:22:35.379Z,5.81
2022-10-19T22:25:38.201Z,5.59
2022-10-19T22:28:41.143Z,5.57
2022-10-19T22:31:44.563Z,5.46
2022-10-19T22:34:47.332Z,5.44
2022-10-19T22:37:49.929Z,5.28
2022-10-19T22:41:49.020Z,5.14
2022-10-19T22:45:10.232Z,5.05
2022-10-19T22:48:13.262Z,4.85
2022-10-19T22:51:15.924Z,4.76
2022-10-19T22:54:18.809Z,4.61
2022-10-19T22:57:21.481Z,4.57
2022-10-19T23:00:24.451Z,4.45
2022-10-19T23:03:27.202Z,4.34
2022-10-19T23:06:30.067Z,4.28
2022-10-19T23:09:32.979Z,4.24
2022-10-19T23:12:36.263Z,4.02
2022-10-19T23:15:43.068Z,4.07
2022-10-19T23:18:46.869Z,4.01
2022-10-19T23:21:49.502Z,3.97
2022-10-19T23:24:52.411Z,3.84
2022-10-19T23:27:55.142Z,3.81
2022-10-19T23:30:58.904Z,3.81
2022-10-19T23:34:01.637Z,3.71
2022-10-19T23:37:04.542Z,3.54
2022-10-19T23:40:07.727Z,3.41
2022-10-19T23:43:11.652Z,3.26
2022-10-19T23:46:14.753Z,3.08
2022-10-19T23:49:17.904Z,3.12
2022-10-19T23:52:20.499Z,2.98
2022-10-19T23:55:23.334Z,3.03
2022-10-19T23:58:26.308Z,2.91
